Time;durP1;ratioP1;P1;durP2;ratioP2;P2;SDS_P1;SDS_P2;PMS_P1;PMS_P2;Temp;Humidity;BMP_temperature;BMP_pressure;BME280_temperature;BME280_humidity;BME280_pressure;Samples;Min_cycle;Max_cycle;Signal;HPM_P1;HPM_P2
2024/02/28 00:00:58;;;;;;;7.10;6.40;;;;;;;18.88;52.96;97279.09;5032571;28;20267;-28
2024/02/28 00:03:25;;;;;;;8.27;6.57;;;;;;;18.90;52.93;97279.16;5032961;28;20202;-25
2024/02/28 00:05:51;;;;;;;7.33;6.63;;;;;;;18.90;53.00;97285.13;5030867;28;20198;-25
2024/02/28 00:08:20;;;;;;;6.93;6.33;;;;;;;18.89;52.77;97283.38;5033596;28;20201;-25
2024/02/28 00:10:46;;;;;;;7.33;6.60;;;;;;;18.90;52.77;97281.69;5031533;28;20256;-25
2024/02/28 00:13:15;;;;;;;6.50;5.90;;;;;;;18.89;52.73;97278.28;5034597;28;20281;-25
2024/02/28 00:15:42;;;;;;;7.80;6.97;;;;;;;18.90;52.68;97276.59;5030617;28;20708;-25
2024/02/28 00:18:08;;;;;;;7.33;6.63;;;;;;;18.89;52.67;97283.38;5031772;28;20224;-25
2024/02/28 00:20:35;;;;;;;8.10;6.80;;;;;;;18.91;52.50;97291.06;5033203;28;20307;-25
2024/02/28 00:23:02;;;;;;;6.73;6.03;;;;;;;18.72;52.89;97258.13;5032839;28;20193;-25
2024/02/28 00:25:28;;;;;;;8.33;6.60;;;;;;;18.90;53.07;97287.66;5028709;28;20283;-25
2024/02/28 00:27:55;;;;;;;7.37;6.60;;;;;;;18.91;52.81;97293.59;5030352;28;20288;-26
2024/02/28 00:30:21;;;;;;;7.40;6.70;;;;;;;18.89;52.66;97298.63;5026072;28;20226;-25
2024/02/28 00:32:48;;;;;;;6.90;6.30;;;;;;;18.87;52.92;97299.41;5033216;28;20284;-25
2024/02/28 00:35:15;;;;;;;6.90;6.20;;;;;;;18.89;52.67;97303.72;5028823;28;20230;-25
2024/02/28 00:37:41;;;;;;;6.90;6.27;;;;;;;18.89;52.74;97307.97;5031349;28;20588;-25
2024/02/28 00:40:08;;;;;;;7.60;6.90;;;;;;;18.90;53.02;97308.03;5026676;28;20256;-25
2024/02/28 00:42:35;;;;;;;7.37;6.60;;;;;;;18.87;53.17;97301.94;5026211;28;20280;-25
2024/02/28 00:45:02;;;;;;;7.70;6.97;;;;;;;18.89;52.79;97305.44;5027799;28;20194;-26
2024/02/28 00:47:29;;;;;;;9.17;6.90;;;;;;;18.89;53.09;97307.97;5026704;28;20209;-25
2024/02/28 00:49:55;;;;;;;7.73;6.43;;;;;;;18.88;53.00;97306.22;5030418;28;20731;-25
2024/02/28 00:52:24;;;;;;;7.03;6.43;;;;;;;18.88;53.02;97311.31;5032841;28;20256;-25
2024/02/28 00:54:51;;;;;;;7.33;6.43;;;;;;;18.89;52.70;97308.81;5029230;28;20700;-25
2024/02/28 00:57:18;;;;;;;7.47;6.70;;;;;;;18.86;52.72;97308.72;5031241;28;20321;-25
2024/02/28 00:59:45;;;;;;;7.13;6.43;;;;;;;18.89;53.00;97305.44;5032192;28;20798;-26
2024/02/28 01:02:11;;;;;;;7.23;6.53;;;;;;;18.87;52.79;97305.38;5025104;28;20243;-25
2024/02/28 01:04:39;;;;;;;7.90;7.10;;;;;;;18.88;52.79;97313.84;5033397;28;20612;-25
2024/02/28 01:07:06;;;;;;;7.80;7.00;;;;;;;18.88;53.45;97312.19;5025854;28;20202;-25
2024/02/28 01:09:32;;;;;;;6.87;6.17;;;;;;;18.88;52.69;97316.41;5028213;28;20226;-25
2024/02/28 01:11:59;;;;;;;7.10;6.40;;;;;;;18.88;52.76;97311.31;5024602;28;20217;-26
2024/02/28 01:14:26;;;;;;;7.00;6.30;;;;;;;18.88;52.70;97319.84;5025717;28;20205;-25
2024/02/28 01:16:52;;;;;;;6.57;5.97;;;;;;;18.89;52.96;97320.72;5024895;28;20244;-25
2024/02/28 01:19:19;;;;;;;8.13;7.33;;;;;;;18.89;52.93;97319.00;5030877;28;20234;-25
2024/02/28 01:21:46;;;;;;;7.90;7.10;;;;;;;18.86;52.96;97318.91;5026157;28;20299;-25
2024/02/28 01:24:12;;;;;;;7.53;6.83;;;;;;;18.88;52.90;97326.59;5023693;28;20493;-27
2024/02/28 01:26:40;;;;;;;7.50;6.80;;;;;;;18.87;52.94;97323.19;5022959;28;20282;-25
2024/02/28 01:29:06;;;;;;;7.27;6.53;;;;;;;18.77;52.87;97313.47;5025642;28;20233;-25
2024/02/28 01:31:33;;;;;;;7.80;6.97;;;;;;;18.85;53.06;97329.91;5031729;28;20209;-25
2024/02/28 01:33:59;;;;;;;7.90;7.10;;;;;;;18.86;52.93;97349.44;5031717;28;20201;-29
2024/02/28 01:36:26;;;;;;;7.93;7.13;;;;;;;18.87;52.72;97341.03;5029290;28;20260;-25
2024/02/28 01:38:54;;;;;;;6.93;6.23;;;;;;;18.86;52.97;97354.53;5029751;28;20256;-25
2024/02/28 01:41:20;;;;;;;8.00;7.23;;;;;;;18.86;52.41;97363.88;5031702;28;20660;-25
2024/02/28 01:43:47;;;;;;;7.30;6.60;;;;;;;18.87;53.12;97357.97;5030477;28;20233;-25
2024/02/28 01:46:22;;;;;;;7.43;6.43;;;;;;;18.86;52.80;97364.72;5026331;28;20281;-25
2024/02/28 01:48:48;;;;;;;7.73;6.93;;;;;;;18.86;52.62;97374.91;5021940;28;20205;-25
2024/02/28 01:51:16;;;;;;;6.93;6.07;;;;;;;18.85;52.82;97377.41;5027357;28;20625;-25
2024/02/28 01:53:43;;;;;;;7.83;6.37;;;;;;;18.83;52.90;97377.34;5028450;28;20197;-25
2024/02/28 01:56:11;;;;;;;7.37;6.67;;;;;;;18.85;52.91;97383.38;5023785;28;20249;-25
2024/02/28 01:58:37;;;;;;;8.33;7.40;;;;;;;18.85;52.80;97387.59;5024082;28;20571;-25
2024/02/28 02:01:06;;;;;;;8.07;7.27;;;;;;;18.82;52.94;97395.09;5005652;28;20305;-26
2024/02/28 02:03:36;;;;;;;8.53;7.03;;;;;;;18.85;52.77;97397.78;5028723;28;20660;-25
2024/02/28 02:06:03;;;;;;;8.10;7.30;;;;;;;18.82;53.00;97398.53;5030301;28;20200;-25
2024/02/28 02:08:29;;;;;;;8.13;6.77;;;;;;;18.83;52.80;97401.97;5029955;28;20711;-25
2024/02/28 02:10:56;;;;;;;7.83;6.80;;;;;;;18.84;53.01;97399.47;5022776;28;20218;-25
2024/02/28 02:13:23;;;;;;;7.87;7.03;;;;;;;18.83;52.75;97404.50;5030943;28;20232;-27
2024/02/28 02:15:49;;;;;;;7.87;7.07;;;;;;;18.83;52.79;97407.91;5028065;28;20279;-25
2024/02/28 02:18:16;;;;;;;7.93;7.13;;;;;;;18.84;53.66;97407.09;5028986;28;20212;-25
2024/02/28 02:20:44;;;;;;;8.33;7.53;;;;;;;18.85;52.80;97407.94;5031520;28;20236;-25
2024/02/28 02:23:11;;;;;;;7.60;6.83;;;;;;;18.84;52.61;97417.28;5029327;28;20292;-25
2024/02/28 02:25:47;;;;;;;8.03;7.23;;;;;;;18.81;52.94;97404.44;5028863;28;20221;-27
2024/02/28 02:28:14;;;;;;;7.03;6.43;;;;;;;18.82;52.74;97418.91;5029809;28;20225;-25
2024/02/28 02:30:45;;;;;;;8.07;7.03;;;;;;;18.82;52.80;97421.44;5030803;28;20311;-25
2024/02/28 02:33:11;;;;;;;7.30;6.60;;;;;;;18.74;53.14;97410.09;5031186;28;20629;-25
2024/02/28 02:35:38;;;;;;;7.57;6.77;;;;;;;18.82;53.02;97418.91;5030836;28;20217;-25
2024/02/28 02:38:05;;;;;;;7.47;6.73;;;;;;;18.83;52.71;97420.63;5031283;28;20198;-25
2024/02/28 02:40:31;;;;;;;7.50;6.60;;;;;;;18.84;52.87;97412.19;5031794;28;20344;-25
2024/02/28 02:42:58;;;;;;;8.00;7.30;;;;;;;18.83;52.97;97412.13;5023127;28;20745;-25
2024/02/28 02:45:24;;;;;;;8.70;7.67;;;;;;;18.83;53.02;97417.22;5031293;28;20225;-25
2024/02/28 02:47:51;;;;;;;8.50;7.57;;;;;;;18.78;52.97;97413.63;5028113;28;20201;-25
2024/02/28 02:50:18;;;;;;;8.23;7.43;;;;;;;18.82;52.94;97416.34;5028964;28;20217;-25
2024/02/28 02:52:44;;;;;;;8.00;7.20;;;;;;;18.83;52.90;97418.06;5028731;28;20205;-25
2024/02/28 02:55:11;;;;;;;8.43;7.63;;;;;;;18.83;53.05;97418.06;5029289;28;20618;-25
2024/02/28 02:57:37;;;;;;;8.23;7.43;;;;;;;18.83;52.72;97427.41;5030795;28;20213;-25
2024/02/28 03:00:07;;;;;;;8.07;7.23;;;;;;;18.82;52.80;97420.56;5028171;28;20213;-25
2024/02/28 03:02:34;;;;;;;7.97;7.17;;;;;;;18.83;52.71;97417.22;5029386;28;20288;-25
2024/02/28 03:05:01;;;;;;;7.67;6.93;;;;;;;18.84;52.62;97412.19;5034341;28;20271;-28
2024/02/28 03:07:27;;;;;;;7.70;7.00;;;;;;;18.85;52.69;97423.22;5034973;28;20206;-26
2024/02/28 03:09:54;;;;;;;7.73;6.97;;;;;;;18.83;52.89;97415.53;5034266;28;20217;-25
2024/02/28 03:12:21;;;;;;;8.00;7.20;;;;;;;18.82;52.84;97418.91;5033958;28;20207;-25
2024/02/28 03:14:48;;;;;;;8.17;7.37;;;;;;;18.82;52.75;97424.00;5027676;28;20198;-25
2024/02/28 03:17:15;;;;;;;8.13;7.33;;;;;;;18.84;52.98;97424.94;5033085;28;20218;-26
2024/02/28 03:19:42;;;;;;;8.80;7.97;;;;;;;18.84;52.80;97424.06;5032577;28;20236;-26
2024/02/28 03:22:08;;;;;;;8.13;7.33;;;;;;;18.83;52.59;97424.88;5033478;28;20201;-25
2024/02/28 03:24:35;;;;;;;8.33;7.33;;;;;;;18.82;53.02;97423.13;5030964;28;20217;-25
2024/02/28 03:27:02;;;;;;;8.70;7.80;;;;;;;18.83;52.79;97424.88;5031174;28;20646;-27
2024/02/28 03:29:29;;;;;;;9.00;8.10;;;;;;;18.81;52.79;97423.94;5030213;28;20352;-25
2024/02/28 03:31:55;;;;;;;8.53;7.73;;;;;;;18.83;52.80;97427.41;5029943;28;20256;-25
2024/02/28 03:34:22;;;;;;;8.80;7.70;;;;;;;18.83;52.72;97427.41;5034045;28;20293;-25
2024/02/28 03:36:48;;;;;;;8.73;7.83;;;;;;;18.82;52.81;97424.00;5035224;28;20267;-26
2024/02/28 03:39:15;;;;;;;8.10;7.40;;;;;;;18.75;52.91;97404.22;5033171;28;20629;-26
2024/02/28 03:41:42;;;;;;;9.17;8.27;;;;;;;18.82;52.52;97426.53;5026462;28;20200;-25
2024/02/28 03:44:08;;;;;;;8.80;7.90;;;;;;;18.84;52.51;97427.47;5030636;28;20233;-27
2024/02/28 03:46:35;;;;;;;8.40;7.60;;;;;;;18.84;52.63;97431.69;5034648;28;20292;-25
2024/02/28 03:49:01;;;;;;;8.37;7.57;;;;;;;18.84;52.29;97432.56;5029189;28;20230;-25
2024/02/28 03:51:29;;;;;;;8.23;7.43;;;;;;;18.81;52.42;97435.00;5031730;28;20601;-25
2024/02/28 03:53:55;;;;;;;7.83;7.13;;;;;;;18.83;52.70;97443.53;5030491;28;20206;-28
2024/02/28 03:56:25;;;;;;;8.73;7.90;;;;;;;18.85;52.68;97443.59;5032322;28;20340;-25
2024/02/28 03:58:53;;;;;;;8.40;7.60;;;;;;;18.85;52.48;97438.50;5025113;28;20202;-25
2024/02/28 04:01:19;;;;;;;8.57;7.67;;;;;;;18.84;52.69;97445.31;5029309;28;20202;-26
2024/02/28 04:03:46;;;;;;;8.80;8.00;;;;;;;18.83;52.62;97442.69;5025336;28;20567;-25
2024/02/28 04:06:13;;;;;;;8.53;7.63;;;;;;;18.76;52.58;97423.75;5033993;28;20244;-25
2024/02/28 04:08:42;;;;;;;9.80;8.40;;;;;;;18.82;52.57;97446.91;5028822;28;20289;-33
2024/02/28 04:11:09;;;;;;;8.77;7.90;;;;;;;18.84;52.79;97437.66;5032488;28;20708;-25
2024/02/28 04:13:35;;;;;;;8.43;7.37;;;;;;;18.84;52.54;97440.22;5034177;28;20209;-25
2024/02/28 04:16:03;;;;;;;8.37;7.57;;;;;;;18.83;52.50;97446.09;5030982;28;20222;-31
2024/02/28 04:18:30;;;;;;;9.13;8.23;;;;;;;18.83;52.34;97448.63;5031662;28;20197;-25
2024/02/28 04:20:56;;;;;;;9.87;8.30;;;;;;;18.83;52.44;97453.72;5031078;28;20603;-25
2024/02/28 04:23:23;;;;;;;9.57;8.17;;;;;;;18.81;52.75;97452.81;5025436;28;20197;-26
2024/02/28 04:25:50;;;;;;;9.07;8.17;;;;;;;18.85;52.71;97463.97;5027171;28;20730;-26
2024/02/28 04:28:17;;;;;;;9.07;8.17;;;;;;;18.85;52.37;97469.06;5029161;28;20225;-25
2024/02/28 04:30:44;;;;;;;8.60;7.40;;;;;;;18.85;52.46;97469.06;5029627;28;20221;-25
2024/02/28 04:33:11;;;;;;;8.27;7.47;;;;;;;18.83;52.46;97473.25;5031695;28;20609;-25
2024/02/28 04:35:37;;;;;;;8.47;7.63;;;;;;;18.79;52.80;97462.06;5027721;28;20558;-25
2024/02/28 04:38:04;;;;;;;8.17;7.40;;;;;;;18.84;52.69;97467.34;5029725;28;20206;-25
2024/02/28 04:40:30;;;;;;;9.10;8.20;;;;;;;18.85;52.65;97479.25;5033199;28;20255;-25
2024/02/28 04:42:57;;;;;;;9.40;8.40;;;;;;;18.84;52.83;97478.41;5028065;28;20233;-26
2024/02/28 04:45:23;;;;;;;8.83;7.97;;;;;;;18.81;52.38;97477.41;5029044;28;20583;-26
2024/02/28 04:47:52;;;;;;;8.50;7.70;;;;;;;18.83;52.64;97480.88;5030455;28;20198;-29
2024/02/28 04:50:18;;;;;;;9.53;8.53;;;;;;;18.81;52.93;97479.94;5031001;28;20673;-25
2024/02/28 04:52:45;;;;;;;8.80;7.90;;;;;;;18.82;52.50;97482.56;5031473;28;20202;-27
2024/02/28 04:55:12;;;;;;;8.80;7.90;;;;;;;18.82;52.80;97481.66;5021433;28;20201;-25
2024/02/28 04:57:39;;;;;;;8.60;7.80;;;;;;;18.82;53.07;97494.41;5028921;28;20225;-25
2024/02/28 05:00:07;;;;;;;9.37;8.37;;;;;;;18.82;52.63;97489.31;5031102;28;20720;-27
2024/02/28 05:02:34;;;;;;;8.97;8.07;;;;;;;18.84;52.36;97495.34;5033260;28;20218;-25
2024/02/28 05:05:00;;;;;;;8.87;8.00;;;;;;;18.83;52.41;97501.25;5032165;28;20198;-25
2024/02/28 05:07:27;;;;;;;8.97;8.07;;;;;;;18.82;53.03;97502.03;5030515;28;20257;-25
2024/02/28 05:09:54;;;;;;;9.33;8.30;;;;;;;18.81;52.72;97508.84;5028812;28;20307;-25
2024/02/28 05:12:20;;;;;;;8.53;7.63;;;;;;;18.80;52.83;97512.16;5026752;28;20202;-26
2024/02/28 05:14:47;;;;;;;8.00;7.20;;;;;;;18.74;52.65;97508.53;5032434;28;20251;-26
2024/02/28 05:17:17;;;;;;;9.27;8.37;;;;;;;18.82;52.46;97519.88;5030223;28;20226;-25
2024/02/28 05:19:43;;;;;;;9.43;8.17;;;;;;;18.81;52.58;97523.22;5032638;28;20251;-25
2024/02/28 05:22:11;;;;;;;9.40;8.43;;;;;;;18.81;52.65;97524.09;5021867;28;20225;-25
2024/02/28 05:24:37;;;;;;;9.13;8.20;;;;;;;18.81;52.59;97524.09;5031423;28;20587;-25
2024/02/28 05:27:04;;;;;;;9.70;8.57;;;;;;;18.83;52.30;97529.25;5031154;28;20193;-25
2024/02/28 05:29:31;;;;;;;9.60;8.70;;;;;;;18.83;51.96;97531.81;5023810;28;20225;-25
2024/02/28 05:31:57;;;;;;;9.53;8.53;;;;;;;18.82;51.97;97538.56;5027722;28;20684;-26
2024/02/28 05:34:24;;;;;;;10.50;9.50;;;;;;;18.83;52.38;97542.84;5032528;28;20269;-25
2024/02/28 05:36:50;;;;;;;9.90;8.90;;;;;;;18.83;51.96;97536.91;5031977;28;20214;-25
2024/02/28 05:39:17;;;;;;;9.90;8.90;;;;;;;18.85;52.02;97548.00;5024274;28;20221;-25
2024/02/28 05:41:44;;;;;;;10.23;9.23;;;;;;;18.85;52.16;97558.19;5029724;28;20288;-26
2024/02/28 05:44:10;;;;;;;9.60;8.60;;;;;;;18.86;52.17;97558.25;5029963;28;20197;-25
2024/02/28 05:46:37;;;;;;;8.97;8.07;;;;;;;18.86;52.01;97567.56;5027717;28;20202;-26
2024/02/28 05:49:04;;;;;;;9.90;8.90;;;;;;;18.86;51.99;97568.41;5030727;28;20202;-26
2024/02/28 05:51:31;;;;;;;8.50;7.70;;;;;;;18.86;51.79;97577.75;5030770;28;20698;-25
2024/02/28 05:53:57;;;;;;;10.57;9.47;;;;;;;18.87;52.13;97574.41;5031509;28;20216;-25
2024/02/28 05:56:24;;;;;;;10.57;9.03;;;;;;;18.85;51.82;97579.44;5030956;28;20730;-28
2024/02/28 05:58:50;;;;;;;10.00;8.97;;;;;;;18.87;51.54;97582.03;5030054;28;20204;-25
2024/02/28 06:01:18;;;;;;;13.37;10.67;;;;;;;18.87;51.21;97595.66;5023819;28;20308;-25
2024/02/28 06:03:47;;;;;;;17.27;14.07;;;;;;;18.86;49.41;97608.31;5032259;28;20205;-25
2024/02/28 06:06:14;;;;;;;15.73;13.20;;;;;;;18.86;48.72;97613.41;5032333;28;20252;-25
2024/02/28 06:08:41;;;;;;;15.23;13.63;;;;;;;18.83;48.59;97611.59;5031558;28;20672;-25
2024/02/28 06:11:08;;;;;;;18.43;16.43;;;;;;;18.86;48.32;97621.03;5031121;28;20224;-25
2024/02/28 06:13:34;;;;;;;18.30;15.80;;;;;;;18.85;48.81;97626.91;5025181;28;20252;-25
2024/02/28 06:16:01;;;;;;;16.30;14.60;;;;;;;18.85;49.25;97626.91;5027152;28;20332;-25
2024/02/28 06:18:28;;;;;;;17.07;15.03;;;;;;;18.71;49.79;97608.53;5030004;28;20547;-25
2024/02/28 06:20:55;;;;;;;18.50;15.43;;;;;;;18.84;49.41;97633.72;5027530;28;20230;-25
2024/02/28 06:23:22;;;;;;;18.23;15.47;;;;;;;18.85;49.54;97639.66;5030400;28;20636;-27
2024/02/28 06:25:55;;;;;;;18.50;14.70;;;;;;;18.84;49.71;97643.91;5031376;28;20512;-25
2024/02/28 06:28:22;;;;;;;17.20;13.90;;;;;;;18.86;49.77;97649.06;5027713;28;20727;-25
2024/02/28 06:30:48;;;;;;;17.77;15.30;;;;;;;18.85;50.02;97648.19;5028456;28;20267;-25
2024/02/28 06:33:15;;;;;;;18.07;14.80;;;;;;;18.86;49.66;97659.25;5026453;28;20202;-25
2024/02/28 06:35:42;;;;;;;16.93;14.13;;;;;;;18.88;49.92;97668.66;5030808;28;20631;-26
2024/02/28 06:38:08;;;;;;;15.50;13.10;;;;;;;18.90;50.17;97666.19;5030587;28;20228;-25
2024/02/28 06:40:35;;;;;;;15.53;13.33;;;;;;;18.89;50.01;97672.94;5030824;28;20621;-25
2024/02/28 06:43:02;;;;;;;15.37;13.23;;;;;;;18.90;50.17;97672.16;5029829;28;20280;-25
2024/02/28 06:45:29;;;;;;;15.80;13.27;;;;;;;18.89;50.27;97675.50;5031124;28;20210;-25
2024/02/28 06:47:55;;;;;;;14.83;12.67;;;;;;;18.89;50.28;97675.50;5027925;28;20196;-25
2024/02/28 06:50:22;;;;;;;13.97;11.80;;;;;;;18.90;50.52;97684.00;5026808;28;20752;-25
2024/02/28 06:52:48;;;;;;;19.23;11.77;;;;;;;18.91;50.47;97680.66;5027529;28;20303;-25
2024/02/28 06:55:15;;;;;;;14.37;12.77;;;;;;;18.90;50.53;97684.91;5031110;28;20209;-25
2024/02/28 06:57:42;;;;;;;12.90;11.60;;;;;;;18.89;50.41;97688.22;5030913;28;20256;-25
2024/02/28 07:00:09;;;;;;;14.53;12.50;;;;;;;18.88;50.71;97686.50;5028608;28;20221;-30
2024/02/28 07:02:36;;;;;;;13.33;11.90;;;;;;;18.90;49.79;97691.66;5022524;28;20197;-25
2024/02/28 07:05:04;;;;;;;24.13;17.50;;;;;;;18.89;47.93;97690.78;5030204;28;20251;-27
2024/02/28 07:07:31;;;;;;;23.30;16.63;;;;;;;18.84;48.12;97684.63;5030121;28;20225;-25
2024/02/28 07:09:57;;;;;;;18.20;16.00;;;;;;;18.88;48.65;97688.16;5027148;28;20671;-26
2024/02/28 07:12:24;;;;;;;17.50;15.63;;;;;;;18.79;49.04;97670.84;5022525;28;20981;-30
2024/02/28 07:14:51;;;;;;;19.00;14.77;;;;;;;18.80;49.38;97680.19;5022108;28;20300;-26
2024/02/28 07:17:18;;;;;;;17.57;15.60;;;;;;;18.81;49.49;97684.50;5028086;28;20225;-26
2024/02/28 07:19:44;;;;;;;17.93;14.10;;;;;;;18.85;49.78;97691.47;5021266;28;20229;-34
2024/02/28 07:22:11;;;;;;;16.67;14.50;;;;;;;18.83;49.62;97699.84;5024703;28;20452;-28
2024/02/28 07:24:38;;;;;;;16.13;13.87;;;;;;;18.85;50.15;97695.66;5027701;28;20289;-25
2024/02/28 07:27:05;;;;;;;16.83;14.37;;;;;;;18.85;50.14;97695.66;5025943;28;20198;-26
2024/02/28 07:29:31;;;;;;;15.77;13.30;;;;;;;18.85;50.04;97698.22;5026189;28;20222;-26
2024/02/28 07:31:58;;;;;;;16.43;13.97;;;;;;;18.84;49.95;97689.72;5019946;28;20206;-26
2024/02/28 07:34:24;;;;;;;15.13;13.27;;;;;;;18.85;50.21;97695.66;5024564;28;20237;-27
2024/02/28 07:36:51;;;;;;;15.47;13.00;;;;;;;18.85;50.12;97693.13;5028375;28;20233;-25
2024/02/28 07:39:18;;;;;;;15.00;13.27;;;;;;;18.86;50.42;97698.28;5023176;28;20229;-29
2024/02/28 07:41:45;;;;;;;15.13;13.53;;;;;;;18.87;50.29;97694.94;5025475;28;20201;-26
2024/02/28 07:44:11;;;;;;;15.43;13.80;;;;;;;18.86;50.63;97695.72;5024453;28;20218;-27
2024/02/28 07:46:40;;;;;;;14.90;13.10;;;;;;;18.86;50.50;97702.53;5025894;28;20745;-25
2024/02/28 07:49:07;;;;;;;14.70;13.17;;;;;;;18.84;50.83;97692.28;5022790;28;20745;-25
2024/02/28 07:51:33;;;;;;;14.80;12.40;;;;;;;18.80;50.52;97692.09;5028209;28;20600;-27
2024/02/28 07:54:00;;;;;;;14.13;12.57;;;;;;;18.83;50.44;97698.16;5029060;28;20675;-25
2024/02/28 07:56:27;;;;;;;13.40;12.00;;;;;;;18.85;51.25;97705.84;5027376;28;20221;-25
2024/02/28 07:58:53;;;;;;;13.67;11.93;;;;;;;18.86;50.82;97702.53;5026717;28;20762;-29
2024/02/28 08:01:22;;;;;;;13.73;12.30;;;;;;;18.84;50.82;97707.56;5026406;28;20308;-29
2024/02/28 08:03:49;;;;;;;12.33;11.03;;;;;;;18.85;50.84;97709.28;5027616;28;20764;-25
2024/02/28 08:06:16;;;;;;;13.30;11.60;;;;;;;18.85;50.76;97714.38;5028622;28;20213;-29
2024/02/28 08:08:46;;;;;;;12.80;11.43;;;;;;;18.86;50.89;97712.72;5025085;28;20673;-29
2024/02/28 08:11:13;;;;;;;12.63;11.33;;;;;;;18.86;50.98;97712.72;5026549;28;20202;-25
2024/02/28 08:13:40;;;;;;;12.57;11.13;;;;;;;18.87;50.65;97709.34;5026339;28;20209;-26
2024/02/28 08:16:08;;;;;;;12.57;11.20;;;;;;;18.87;50.57;97714.44;5027530;28;20205;-25
2024/02/28 08:18:35;;;;;;;12.53;11.23;;;;;;;18.86;50.75;97707.63;5027012;28;20552;-26
2024/02/28 08:21:02;;;;;;;12.03;10.83;;;;;;;18.86;50.90;97715.25;5027341;28;20231;-25
2024/02/28 08:23:32;;;;;;;12.70;11.23;;;;;;;18.86;50.99;97716.09;5028386;28;20634;-25
2024/02/28 08:25:58;;;;;;;12.90;11.50;;;;;;;18.86;50.72;97715.25;5026929;28;20237;-25
2024/02/28 08:28:25;;;;;;;12.80;10.90;;;;;;;18.86;50.94;97713.56;5025870;28;20201;-27
2024/02/28 08:30:52;;;;;;;12.00;10.70;;;;;;;18.85;51.04;97713.50;5026040;28;20311;-26
2024/02/28 08:33:18;;;;;;;12.33;10.87;;;;;;;18.86;51.05;97710.16;5028505;28;20304;-27
2024/02/28 08:35:51;;;;;;;11.43;10.23;;;;;;;18.86;51.04;97720.34;5027772;28;20209;-25
2024/02/28 08:38:18;;;;;;;10.80;9.70;;;;;;;18.86;51.02;97728.84;5029017;28;20256;-25
2024/02/28 08:40:45;;;;;;;10.30;9.20;;;;;;;18.87;50.84;97729.72;5026669;28;20261;-31
2024/02/28 08:43:12;;;;;;;11.60;10.00;;;;;;;18.88;50.90;97729.78;5023714;28;20205;-25
2024/02/28 08:45:38;;;;;;;10.03;9.03;;;;;;;18.89;50.88;97735.75;5027669;28;20268;-25
2024/02/28 08:48:06;;;;;;;11.57;9.83;;;;;;;18.89;51.01;97734.06;5028574;28;20332;-25
2024/02/28 08:50:33;;;;;;;11.07;9.30;;;;;;;18.91;51.44;97739.22;5027958;28;20229;-28
2024/02/28 08:53:00;;;;;;;12.17;9.83;;;;;;;18.89;51.05;97741.69;5026083;28;20209;-25
2024/02/28 08:55:28;;;;;;;12.33;9.83;;;;;;;18.88;51.13;97742.53;5026340;28;20606;-27
2024/02/28 08:57:55;;;;;;;10.90;9.80;;;;;;;18.89;51.13;97740.84;5025358;28;20232;-25
2024/02/28 09:00:22;;;;;;;10.20;9.17;;;;;;;18.87;50.98;97742.44;5027606;28;20237;-34
2024/02/28 09:02:49;;;;;;;11.93;9.90;;;;;;;18.88;51.08;97746.72;5027079;28;20700;-25
2024/02/28 09:05:15;;;;;;;10.90;9.80;;;;;;;18.88;51.20;97747.63;5026870;28;20296;-34
2024/02/28 09:07:42;;;;;;;10.10;9.10;;;;;;;18.88;50.62;97751.81;5027342;28;20234;-25
2024/02/28 09:10:09;;;;;;;9.10;8.20;;;;;;;18.88;51.06;97751.81;5026909;28;20644;-26
2024/02/28 09:12:36;;;;;;;10.83;9.40;;;;;;;18.85;51.11;97746.59;5025011;28;20231;-26
2024/02/28 09:15:03;;;;;;;10.10;9.10;;;;;;;18.89;51.06;97751.03;5025919;28;20205;-25
2024/02/28 09:17:31;;;;;;;9.63;8.63;;;;;;;18.89;51.05;97754.44;5026938;28;21079;-26
2024/02/28 09:20:00;;;;;;;12.03;9.77;;;;;;;18.92;50.42;97766.44;5023972;28;20660;-31
2024/02/28 09:22:27;;;;;;;9.77;8.77;;;;;;;18.92;51.31;97763.91;5025560;28;20217;-25
2024/02/28 09:24:54;;;;;;;10.13;9.00;;;;;;;18.91;51.30;97763.03;5022759;28;20292;-27
2024/02/28 09:27:21;;;;;;;13.90;9.70;;;;;;;18.91;51.32;97768.13;5021141;28;20268;-27
2024/02/28 09:29:48;;;;;;;10.87;8.67;;;;;;;18.90;50.95;97763.84;5024208;28;20221;-26
2024/02/28 09:32:14;;;;;;;10.10;8.40;;;;;;;18.82;51.34;97754.09;5025510;28;20556;-26
2024/02/28 09:34:41;;;;;;;10.67;7.97;;;;;;;18.90;51.32;97770.59;5020958;28;20202;-25
2024/02/28 09:37:08;;;;;;;9.20;8.27;;;;;;;18.87;51.48;97768.81;5024494;28;20258;-28
2024/02/28 09:39:38;;;;;;;10.40;8.87;;;;;;;18.90;51.37;97768.06;5027000;28;20336;-26
2024/02/28 09:42:06;;;;;;;10.43;8.17;;;;;;;18.88;51.41;97765.44;5022284;28;20680;-26
2024/02/28 09:44:32;;;;;;;11.03;9.07;;;;;;;18.86;51.26;97764.50;5011682;28;20688;-25
2024/02/28 09:46:59;;;;;;;8.60;7.80;;;;;;;18.87;51.32;97762.81;5007829;28;20233;-28
2024/02/28 09:49:26;;;;;;;11.37;8.73;;;;;;;18.89;51.22;97772.25;5018570;28;20592;-25
2024/02/28 09:51:53;;;;;;;9.23;8.27;;;;;;;18.86;51.19;97767.03;5026791;28;20201;-25
2024/02/28 09:54:20;;;;;;;10.30;7.93;;;;;;;18.90;51.60;97771.47;5028323;28;20208;-25
2024/02/28 09:56:48;;;;;;;9.20;8.30;;;;;;;18.88;51.38;97760.34;5027054;28;20633;-25
2024/02/28 09:59:15;;;;;;;8.87;7.47;;;;;;;18.90;51.31;97771.47;5027979;28;20230;-27
2024/02/28 10:01:44;;;;;;;8.93;7.83;;;;;;;18.89;51.35;97771.41;5021379;28;20245;-25
2024/02/28 10:04:12;;;;;;;11.17;7.93;;;;;;;18.90;51.44;97774.03;5025989;28;20202;-25
2024/02/28 10:06:40;;;;;;;10.90;7.40;;;;;;;18.90;51.53;97778.25;5024291;28;20585;-25
2024/02/28 10:09:07;;;;;;;9.00;7.80;;;;;;;18.89;51.31;97769.72;5025227;28;20499;-27
2024/02/28 10:11:35;;;;;;;8.83;7.77;;;;;;;18.64;51.45;97735.47;5024459;28;20381;-27
2024/02/28 10:14:02;;;;;;;8.00;7.20;;;;;;;18.90;52.04;97781.66;5027717;28;20268;-25
2024/02/28 10:16:29;;;;;;;8.67;7.80;;;;;;;18.89;51.42;97785.00;5024322;28;20201;-25
2024/02/28 10:18:55;;;;;;;8.83;7.63;;;;;;;18.89;51.36;97782.44;5023174;28;20300;-26
2024/02/28 10:21:23;;;;;;;8.03;7.20;;;;;;;18.87;51.23;97778.09;5027480;28;20679;-26
2024/02/28 10:23:50;;;;;;;9.00;7.40;;;;;;;18.82;51.34;97779.56;5024601;28;20642;-27
2024/02/28 10:26:17;;;;;;;7.93;7.17;;;;;;;18.87;51.24;97789.16;5022150;28;20696;-25
2024/02/28 10:28:45;;;;;;;8.73;7.30;;;;;;;18.89;51.48;97801.97;5026107;28;20267;-25
2024/02/28 10:31:12;;;;;;;9.00;7.63;;;;;;;18.88;51.09;97795.13;5028134;28;20225;-26
2024/02/28 10:33:41;;;;;;;8.80;7.77;;;;;;;18.88;50.83;97795.13;5027028;28;20288;-26
2024/02/28 10:36:07;;;;;;;7.73;6.93;;;;;;;18.88;51.34;97800.22;5019507;28;20204;-25
2024/02/28 10:38:34;;;;;;;7.93;7.03;;;;;;;18.86;51.43;97804.38;5003472;28;20230;-25
2024/02/28 10:41:01;;;;;;;8.63;7.57;;;;;;;18.88;51.54;97801.09;5027621;28;20221;-28
2024/02/28 10:43:29;;;;;;;8.10;7.00;;;;;;;18.89;51.46;97805.38;5024302;28;20204;-26
2024/02/28 10:45:59;;;;;;;7.77;6.97;;;;;;;18.89;51.48;97809.59;5027659;28;20202;-25
2024/02/28 10:48:28;;;;;;;7.53;6.77;;;;;;;18.91;51.38;97801.22;5025381;28;20280;-26
2024/02/28 10:50:55;;;;;;;7.77;6.67;;;;;;;18.93;51.48;97807.25;5027712;28;20259;-27
2024/02/28 10:53:37;;;;;;;7.37;6.63;;;;;;;18.95;51.18;97813.28;5024025;28;20216;-30
2024/02/28 10:56:04;;;;;;;11.73;6.73;;;;;;;18.95;51.45;97809.88;5024474;28;20212;-25
2024/02/28 10:58:37;;;;;;;7.57;6.43;;;;;;;18.99;51.46;97819.38;5025963;28;20655;-26
2024/02/28 11:01:04;;;;;;;8.37;6.63;;;;;;;18.98;51.47;97815.09;5023298;28;20223;-29
2024/02/28 11:03:31;;;;;;;9.07;7.10;;;;;;;19.00;51.50;97823.66;5024827;28;20679;-25
2024/02/28 11:05:57;;;;;;;9.07;6.97;;;;;;;19.02;51.47;97828.03;5024948;28;20208;-31
2024/02/28 11:08:26;;;;;;;7.60;6.87;;;;;;;19.01;51.49;97820.34;5024822;28;20202;-27
2024/02/28 11:11:01;;;;;;;7.37;6.53;;;;;;;19.02;51.56;97828.03;5025882;28;20229;-28
2024/02/28 11:13:28;;;;;;;7.87;6.83;;;;;;;19.03;51.58;97823.78;5024262;28;20209;-26
2024/02/28 11:15:57;;;;;;;8.17;6.60;;;;;;;19.03;51.40;97817.03;5025918;28;20742;-28
2024/02/28 11:18:24;;;;;;;7.53;6.73;;;;;;;19.02;51.04;97819.53;5023974;28;20221;-26
2024/02/28 11:20:51;;;;;;;7.93;6.50;;;;;;;18.96;51.45;97815.03;5024145;28;20602;-29
2024/02/28 11:23:17;;;;;;;7.97;7.00;;;;;;;19.05;51.09;97829.84;5024338;28;20241;-26
2024/02/28 11:25:44;;;;;;;8.00;6.30;;;;;;;19.04;51.56;97831.50;5026022;28;20633;-27
2024/02/28 11:28:11;;;;;;;7.23;6.47;;;;;;;19.05;51.30;97838.38;5027066;28;20198;-25